Pagrindinis puslapis
METAR-TAF:

METAR-TAF

Oro uostai :

San Paulas-Congonhas, San Paulas, Brazilija

platuma: 23-37S, ilguma: 046-39W, Aukštis: 803 m

Dabartinis oras

Ataskaita buvo paskelbta 50 minutes, ne 10:00 UTC
Vėjas 4 kt iš Šiaurės/Šiaurės Vakarų
Temperatūra 12°C
Drėgmė 76%
Slėgis 1021 hPa
Matomumas 10 km arba daugiau
nėra debesų žemiau 1500 m ir nėra kamuolinių lietaus debesų

METAR: SBSP 311000Z 33004KT CAVOK 12/08 Q1021

Laikas: 07:50 (10:50 UTC)

Prognozė

Ataskaita buvo paskelbta 8 valandos ir 30 minutes, ne 02:20 UTC
Prognozė galioja nuo 31 metu 06 UTC su 31 metu 18 UTC
Vėjas 3 kt iš Šiaurės/Šiaurės Rytų
Matomumas 10 km arba daugiau
nėra debesų žemiau 1500 m ir nėra kamuolinių lietaus debesų
Tapsmas
nuo 31 metu 09 UTC su 31 metu 11 UTC
Vėjas 5 kt iš Šiaurės/Šiaurės Vakarų
Tikimybė 40%
nuo 31 metu 15 UTC su 31 metu 18 UTC
Vėjas 10 kt iš Vakarų/Šiaurės Vakarų su gūsio iki 25 kt
Mažai debesys ne aukštis 4000 ft

TAF: SBSP 310220Z 3106/3118 02003KT CAVOK TN12/3109Z TX25/3117Z BECMG 3109/3111 34005KT PROB40 3115/3118 30010G25KT FEW040 RMK PGG

Orai ataskaitas ir orų prognozės (METAR, TAF).

turimą stotys yra geltonos ir raudonos taškus žemėlapyje.

Perkelti pele per norėdami pamatyti stoties vardą.

Tada spustelėkite, norėdami matyti oro stebėjimo ir prognozės.

Norėdami pakeisti žemėlapį: spustelėkite ant žalios mygtukų su juodo kryžiaus žemyn,; žalią mygtuką su brūkšneliu, jei norite nutolinti; arba žalių rodyklių gretimoms žemėlapius.


METAR-TAF: